Time;durP1;ratioP1;P1;durP2;ratioP2;P2;SDS_P1;SDS_P2;PMS_P1;PMS_P2;Temp;Humidity;BMP_temperature;BMP_pressure;BME280_temperature;BME280_humidity;BME280_pressure;Samples;Min_cycle;Max_cycle;Signal;HPM_P1;HPM_P2
2022/09/16 00:02:14;;;;;;;;;3.67;3.67;;;;;;;;5039127;28;45279;-66
2022/09/16 00:04:39;;;;;;;;;6.00;4.00;;;;;;;;5041349;28;45496;-67
2022/09/16 00:07:05;;;;;;;;;6.67;5.33;;;;;;;;5037500;28;45644;-67
2022/09/16 00:09:30;;;;;;;;;7.33;6.00;;;;;;;;5021862;28;45547;-67
2022/09/16 00:11:55;;;;;;;;;4.67;4.33;;;;;;;;5040689;28;45390;-67
2022/09/16 00:14:20;;;;;;;;;7.67;6.33;;;;;;;;5041916;28;45565;-66
2022/09/16 00:16:45;;;;;;;;;6.67;5.00;;;;;;;;5040738;28;45567;-67
2022/09/16 00:19:12;;;;;;;;;5.33;5.33;;;;;;;;5042430;28;45321;-67
2022/09/16 00:21:37;;;;;;;;;7.00;6.00;;;;;;;;5040258;28;45403;-67
2022/09/16 00:24:02;;;;;;;;;7.67;7.00;;;;;;;;5042076;28;45305;-67
2022/09/16 00:26:28;;;;;;;;;5.67;5.67;;;;;;;;5040576;28;45506;-67
2022/09/16 00:28:53;;;;;;;;;9.00;7.00;;;;;;;;5041411;28;45275;-67
2022/09/16 00:31:19;;;;;;;;;7.00;7.00;;;;;;;;5015084;28;45295;-67
2022/09/16 00:33:44;;;;;;;;;9.00;7.67;;;;;;;;5024798;28;45665;-67
2022/09/16 00:36:13;;;;;;;;;6.50;6.50;;;;;;;;5040961;28;45412;-67
2022/09/16 00:38:39;;;;;;;;;7.00;6.33;;;;;;;;5040368;28;45343;-67
2022/09/16 00:41:05;;;;;;;;;5.67;5.67;;;;;;;;5018018;28;45390;-67
2022/09/16 00:44:08;;;;;;;;;8.33;7.00;;;;;;;;5039594;28;45623;-67
2022/09/16 00:46:34;;;;;;;;;7.00;7.00;;;;;;;;4969816;28;45507;-67
2022/09/16 00:49:01;;;;;;;;;8.67;6.00;;;;;;;;4980156;28;45424;-67
2022/09/16 00:51:27;;;;;;;;;7.00;6.00;;;;;;;;5008887;28;45476;-67
2022/09/16 00:53:56;;;;;;;;;7.00;7.00;;;;;;;;5038335;28;45335;-68
2022/09/16 00:56:24;;;;;;;;;8.67;7.33;;;;;;;;5040212;28;46491;-67
2022/09/16 00:58:54;;;;;;;;;5.33;5.00;;;;;;;;5038116;28;45359;-67
2022/09/16 01:01:20;;;;;;;;;7.33;7.33;;;;;;;;5040248;28;45335;-67
2022/09/16 01:03:48;;;;;;;;;8.00;6.00;;;;;;;;5036996;28;45462;-67
2022/09/16 01:06:14;;;;;;;;;7.67;6.00;;;;;;;;5040776;28;45598;-67
2022/09/16 01:08:41;;;;;;;;;8.00;7.00;;;;;;;;5037158;28;45394;-67
2022/09/16 01:11:06;;;;;;;;;7.33;7.33;;;;;;;;5041295;28;45404;-68
2022/09/16 01:13:31;;;;;;;;;6.67;6.00;;;;;;;;5036775;28;45371;-68
2022/09/16 01:16:05;;;;;;;;;6.67;6.67;;;;;;;;5042331;28;45345;-68
2022/09/16 01:18:30;;;;;;;;;7.33;7.00;;;;;;;;5038725;28;45438;-68
2022/09/16 01:21:03;;;;;;;;;6.00;6.00;;;;;;;;5042388;28;45438;-68
2022/09/16 01:23:40;;;;;;;;;6.00;6.00;;;;;;;;5037341;28;45608;-68
2022/09/16 01:26:11;;;;;;;;;8.67;8.00;;;;;;;;5023418;28;47070;-68
2022/09/16 01:28:49;;;;;;;;;9.00;7.00;;;;;;;;5040553;28;45346;-68
2022/09/16 01:31:22;;;;;;;;;10.33;8.00;;;;;;;;5039791;28;45327;-68
2022/09/16 01:34:07;;;;;;;;;11.33;9.33;;;;;;;;5039032;28;45554;-68
2022/09/16 01:36:59;;;;;;;;;7.33;7.00;;;;;;;;4998604;28;45685;-67
2022/09/16 01:39:43;;;;;;;;;10.67;10.67;;;;;;;;5040619;28;45425;-68
2022/09/16 01:42:19;;;;;;;;;9.33;7.00;;;;;;;;5036254;28;45484;-68
2022/09/16 01:44:51;;;;;;;;;9.67;8.00;;;;;;;;5021451;28;45417;-68
2022/09/16 01:47:32;;;;;;;;;10.00;8.33;;;;;;;;5038133;28;46602;-67
2022/09/16 01:50:01;;;;;;;;;7.00;7.00;;;;;;;;5045219;28;45528;-68
2022/09/16 01:52:33;;;;;;;;;8.00;8.00;;;;;;;;5039524;28;45496;-67
2022/09/16 01:55:04;;;;;;;;;9.33;7.67;;;;;;;;5023064;28;45290;-66
2022/09/16 01:57:36;;;;;;;;;10.00;8.67;;;;;;;;5038214;28;46108;-67
2022/09/16 02:00:05;;;;;;;;;9.00;8.00;;;;;;;;5044723;28;45313;-67
2022/09/16 02:02:39;;;;;;;;;12.00;12.00;;;;;;;;5038409;28;45407;-67
2022/09/16 02:05:08;;;;;;;;;10.67;9.00;;;;;;;;5027340;28;45702;-67
2022/09/16 02:07:35;;;;;;;;;8.67;8.00;;;;;;;;5039743;28;46383;-68
2022/09/16 02:10:06;;;;;;;;;8.67;8.67;;;;;;;;5026763;28;45393;-67
2022/09/16 02:12:33;;;;;;;;;8.67;7.00;;;;;;;;5042139;28;45402;-67
2022/09/16 02:15:01;;;;;;;;;8.67;8.67;;;;;;;;5045212;28;45625;-66
2022/09/16 02:17:28;;;;;;;;;7.67;7.67;;;;;;;;5053390;28;47032;-67
2022/09/16 02:19:56;;;;;;;;;9.67;9.67;;;;;;;;5044861;28;45226;-68
2022/09/16 02:22:41;;;;;;;;;9.67;7.00;;;;;;;;5039078;28;45205;-68
2022/09/16 02:25:08;;;;;;;;;7.67;7.00;;;;;;;;5040176;28;45245;-67
2022/09/16 02:27:33;;;;;;;;;10.33;10.33;;;;;;;;5034868;28;46685;-68
2022/09/16 02:30:02;;;;;;;;;9.00;9.00;;;;;;;;5043850;28;46306;-68
2022/09/16 02:32:30;;;;;;;;;12.00;10.33;;;;;;;;5041486;28;45370;-68
2022/09/16 02:34:56;;;;;;;;;10.00;8.33;;;;;;;;5023602;28;45564;-68
2022/09/16 02:37:35;;;;;;;;;10.33;9.00;;;;;;;;5042029;28;45271;-68
2022/09/16 02:40:04;;;;;;;;;14.00;11.00;;;;;;;;5044330;28;45373;-67
2022/09/16 02:42:30;;;;;;;;;12.00;12.00;;;;;;;;5024116;28;45372;-68
2022/09/16 02:44:57;;;;;;;;;11.00;11.00;;;;;;;;5041530;28;45367;-68
2022/09/16 02:47:22;;;;;;;;;10.33;10.33;;;;;;;;5040450;28;46358;-68
2022/09/16 02:49:54;;;;;;;;;13.33;12.00;;;;;;;;5039496;28;45419;-68
2022/09/16 02:52:27;;;;;;;;;12.33;11.33;;;;;;;;5042517;28;45435;-68
2022/09/16 02:54:52;;;;;;;;;10.00;10.00;;;;;;;;5044807;28;45312;-67
2022/09/16 02:57:17;;;;;;;;;11.67;8.00;;;;;;;;5040230;28;45595;-68
2022/09/16 02:59:43;;;;;;;;;13.33;11.67;;;;;;;;5040617;28;45296;-68
2022/09/16 03:02:08;;;;;;;;;11.00;11.00;;;;;;;;5041705;28;45311;-68
2022/09/16 03:04:34;;;;;;;;;7.67;6.00;;;;;;;;5044725;28;45458;-68
2022/09/16 03:06:59;;;;;;;;;10.00;10.00;;;;;;;;5040592;28;45200;-67
2022/09/16 03:09:24;;;;;;;;;12.00;8.67;;;;;;;;5044114;28;45374;-68
2022/09/16 03:11:49;;;;;;;;;15.00;10.67;;;;;;;;5040406;28;45462;-68
2022/09/16 03:14:24;;;;;;;;;10.00;10.00;;;;;;;;5043920;28;45398;-68
2022/09/16 03:16:55;;;;;;;;;13.33;11.00;;;;;;;;5040258;28;45567;-68
2022/09/16 03:19:33;;;;;;;;;11.33;10.00;;;;;;;;5037993;28;45498;-68
2022/09/16 03:22:07;;;;;;;;;11.00;9.33;;;;;;;;5038967;28;45407;-68
2022/09/16 03:24:53;;;;;;;;;12.00;12.00;;;;;;;;5043337;28;45252;-68
2022/09/16 03:27:29;;;;;;;;;12.33;12.00;;;;;;;;5039238;28;46328;-68
2022/09/16 03:30:04;;;;;;;;;14.33;12.00;;;;;;;;5041425;28;45378;-68
2022/09/16 03:32:35;;;;;;;;;17.33;16.67;;;;;;;;5040527;28;45415;-67
2022/09/16 03:35:27;;;;;;;;;13.67;11.33;;;;;;;;5043845;28;45586;-68
2022/09/16 03:37:53;;;;;;;;;11.00;11.00;;;;;;;;5050106;28;47104;-68
2022/09/16 03:40:19;;;;;;;;;15.00;14.00;;;;;;;;5058904;28;45410;-68
2022/09/16 03:42:44;;;;;;;;;18.33;14.67;;;;;;;;5037598;28;45362;-67
2022/09/16 03:45:13;;;;;;;;;30.00;29.50;;;;;;;;5043848;28;45346;-67
2022/09/16 03:47:39;;;;;;;;;12.00;12.00;;;;;;;;5017726;28;46975;-68
2022/09/16 03:50:04;;;;;;;;;17.67;12.67;;;;;;;;5043040;28;45465;-67
2022/09/16 03:52:29;;;;;;;;;14.00;13.00;;;;;;;;5052143;28;45449;-67
2022/09/16 03:54:55;;;;;;;;;17.67;13.00;;;;;;;;5043311;28;45565;-68
2022/09/16 03:57:20;;;;;;;;;18.67;15.00;;;;;;;;5039539;28;46082;-68
2022/09/16 03:59:45;;;;;;;;;12.00;12.00;;;;;;;;5042857;28;45139;-67
2022/09/16 04:02:10;;;;;;;;;14.33;11.67;;;;;;;;5036936;28;45509;-67
2022/09/16 04:04:35;;;;;;;;;14.00;12.33;;;;;;;;5041105;28;45133;-67
2022/09/16 04:07:01;;;;;;;;;13.00;10.00;;;;;;;;5018732;28;47381;-67
2022/09/16 04:09:26;;;;;;;;;13.00;13.00;;;;;;;;5040621;28;45243;-67
2022/09/16 04:11:51;;;;;;;;;15.67;14.00;;;;;;;;5038631;28;45571;-68
2022/09/16 04:14:16;;;;;;;;;13.33;11.33;;;;;;;;5038921;28;45635;-67
2022/09/16 04:16:41;;;;;;;;;11.33;11.00;;;;;;;;5037435;28;46608;-67
2022/09/16 04:19:09;;;;;;;;;12.33;12.33;;;;;;;;5040675;28;45370;-68
2022/09/16 04:21:34;;;;;;;;;12.25;11.50;;;;;;;;5037254;28;45544;-68
2022/09/16 04:23:59;;;;;;;;;14.00;12.00;;;;;;;;5022426;28;45600;-72
2022/09/16 04:26:24;;;;;;;;;12.00;10.00;;;;;;;;5038205;28;45633;-68
2022/09/16 04:28:56;;;;;;;;;17.33;14.33;;;;;;;;5041223;28;45492;-68
2022/09/16 04:31:21;;;;;;;;;10.33;10.33;;;;;;;;5020350;28;46268;-67
2022/09/16 04:33:46;;;;;;;;;14.67;11.00;;;;;;;;5041835;28;45362;-68
2022/09/16 04:36:13;;;;;;;;;15.00;14.67;;;;;;;;5041703;28;45328;-68
2022/09/16 04:38:39;;;;;;;;;16.00;14.33;;;;;;;;5032230;28;45368;-69
2022/09/16 04:41:06;;;;;;;;;10.33;10.33;;;;;;;;5042230;28;45359;-68
2022/09/16 04:43:32;;;;;;;;;17.00;14.00;;;;;;;;5039492;28;46247;-68
2022/09/16 04:45:57;;;;;;;;;14.00;12.33;;;;;;;;5041791;28;45372;-69
2022/09/16 04:48:22;;;;;;;;;15.33;14.00;;;;;;;;5053429;28;46064;-69
2022/09/16 04:50:47;;;;;;;;;15.00;13.33;;;;;;;;5041738;28;45248;-69
2022/09/16 04:53:12;;;;;;;;;12.00;12.00;;;;;;;;5038763;28;45333;-69
2022/09/16 04:55:38;;;;;;;;;14.00;11.33;;;;;;;;5041437;28;46353;-68
2022/09/16 04:58:03;;;;;;;;;12.67;11.67;;;;;;;;5034818;28;45264;-68
2022/09/16 05:00:29;;;;;;;;;15.00;14.00;;;;;;;;5039609;28;45447;-68
2022/09/16 05:02:54;;;;;;;;;16.67;14.00;;;;;;;;5035287;28;45351;-67
2022/09/16 05:05:20;;;;;;;;;13.00;11.00;;;;;;;;5023580;28;46536;-71
2022/09/16 05:07:45;;;;;;;;;13.00;11.00;;;;;;;;5052030;28;45426;-68
2022/09/16 05:10:10;;;;;;;;;14.00;11.33;;;;;;;;5041847;28;45416;-69
2022/09/16 05:12:36;;;;;;;;;16.33;10.67;;;;;;;;5036841;28;45321;-69
2022/09/16 05:15:01;;;;;;;;;13.00;13.00;;;;;;;;5020582;28;47118;-68
2022/09/16 05:17:28;;;;;;;;;14.00;13.00;;;;;;;;5034938;28;45574;-68
2022/09/16 05:19:53;;;;;;;;;17.00;14.67;;;;;;;;5041485;28;45830;-68
2022/09/16 05:22:19;;;;;;;;;13.00;12.33;;;;;;;;5038842;28;45424;-68
2022/09/16 05:24:44;;;;;;;;;16.33;13.00;;;;;;;;5044523;28;45315;-68
2022/09/16 05:27:10;;;;;;;;;20.00;16.33;;;;;;;;5040247;28;45477;-69
2022/09/16 05:29:35;;;;;;;;;15.00;12.00;;;;;;;;5044150;28;45415;-68
2022/09/16 05:32:01;;;;;;;;;17.67;14.00;;;;;;;;5042017;28;45486;-70
2022/09/16 05:34:27;;;;;;;;;14.67;13.00;;;;;;;;5043977;28;45439;-69
2022/09/16 05:36:53;;;;;;;;;11.67;11.33;;;;;;;;5021839;28;45561;-67
2022/09/16 05:39:18;;;;;;;;;15.67;14.00;;;;;;;;5040842;28;45573;-67
2022/09/16 05:41:44;;;;;;;;;16.67;13.67;;;;;;;;5042608;28;45462;-69
2022/09/16 05:44:09;;;;;;;;;13.67;13.67;;;;;;;;5041162;28;45226;-69
2022/09/16 05:46:34;;;;;;;;;15.00;14.00;;;;;;;;5042093;28;45388;-69
2022/09/16 05:49:00;;;;;;;;;14.67;11.67;;;;;;;;5039090;28;45383;-68
2022/09/16 05:51:25;;;;;;;;;19.33;13.67;;;;;;;;5042404;28;45224;-69
2022/09/16 05:53:51;;;;;;;;;13.00;13.00;;;;;;;;5037367;28;45374;-69
2022/09/16 05:56:20;;;;;;;;;15.00;13.00;;;;;;;;5042729;28;45316;-67
2022/09/16 05:58:46;;;;;;;;;22.00;13.00;;;;;;;;5036841;28;45377;-70
2022/09/16 06:01:16;;;;;;;;;16.33;16.00;;;;;;;;5043629;28;45253;-69
2022/09/16 06:03:42;;;;;;;;;17.00;17.00;;;;;;;;5039250;28;45868;-69
2022/09/16 06:06:12;;;;;;;;;13.00;13.00;;;;;;;;5025366;28;45255;-69
2022/09/16 06:08:37;;;;;;;;;16.33;16.33;;;;;;;;5021830;28;45325;-67
2022/09/16 06:11:03;;;;;;;;;19.33;12.67;;;;;;;;5043974;28;45614;-68
2022/09/16 06:13:29;;;;;;;;;8.33;8.33;;;;;;;;5040795;28;45393;-67
2022/09/16 06:15:54;;;;;;;;;19.00;14.33;;;;;;;;5021814;28;45249;-67
2022/09/16 06:18:20;;;;;;;;;14.33;13.33;;;;;;;;5034158;28;45438;-69
2022/09/16 06:20:45;;;;;;;;;15.00;13.67;;;;;;;;5041826;28;45244;-68
2022/09/16 06:23:11;;;;;;;;;16.67;15.67;;;;;;;;5016614;28;47144;-68
2022/09/16 06:25:36;;;;;;;;;17.00;16.33;;;;;;;;5038664;28;45303;-68
2022/09/16 06:28:02;;;;;;;;;15.67;14.00;;;;;;;;5038501;28;45254;-69
2022/09/16 06:30:28;;;;;;;;;16.33;16.33;;;;;;;;5042639;28;45883;-68
2022/09/16 06:32:53;;;;;;;;;15.00;12.67;;;;;;;;5038121;28;45556;-68
2022/09/16 06:35:18;;;;;;;;;18.00;18.00;;;;;;;;5021944;28;45337;-68
2022/09/16 06:37:43;;;;;;;;;17.33;15.67;;;;;;;;5038780;28;45338;-68
2022/09/16 06:40:09;;;;;;;;;21.00;18.33;;;;;;;;5043800;28;45386;-68
2022/09/16 06:42:34;;;;;;;;;17.00;15.00;;;;;;;;5037822;28;46440;-70
2022/09/16 06:45:01;;;;;;;;;17.33;14.00;;;;;;;;5018742;28;45709;-68
2022/09/16 06:47:26;;;;;;;;;26.75;22.25;;;;;;;;5036857;28;45472;-68
2022/09/16 06:49:51;;;;;;;;;17.33;15.33;;;;;;;;5018782;28;45410;-68
2022/09/16 06:52:18;;;;;;;;;20.25;19.25;;;;;;;;5038534;28;46537;-67
2022/09/16 06:54:43;;;;;;;;;16.00;16.00;;;;;;;;5039836;28;45262;-68
2022/09/16 06:57:08;;;;;;;;;15.00;14.00;;;;;;;;5036620;28;45481;-67
2022/09/16 06:59:33;;;;;;;;;18.00;17.00;;;;;;;;5042321;28;45239;-67
2022/09/16 07:02:00;;;;;;;;;17.00;16.00;;;;;;;;5038292;28;45542;-67
2022/09/16 07:04:25;;;;;;;;;21.33;21.00;;;;;;;;5018571;28;45250;-68
2022/09/16 07:06:50;;;;;;;;;25.00;21.00;;;;;;;;5040425;28;45435;-68
2022/09/16 07:09:16;;;;;;;;;22.00;19.25;;;;;;;;5025220;28;45552;-67
2022/09/16 07:11:41;;;;;;;;;28.75;27.75;;;;;;;;5040039;28;46330;-68
2022/09/16 07:14:06;;;;;;;;;26.00;25.75;;;;;;;;5041418;28;45397;-68
2022/09/16 07:16:32;;;;;;;;;33.25;26.75;;;;;;;;5040676;28;45220;-68
2022/09/16 07:18:57;;;;;;;;;31.50;30.25;;;;;;;;5039935;28;45446;-68
2022/09/16 07:21:27;;;;;;;;;32.50;29.50;;;;;;;;5040772;28;46652;-68
2022/09/16 07:23:54;;;;;;;;;26.50;25.00;;;;;;;;5037862;28;45497;-68
2022/09/16 07:26:25;;;;;;;;;19.50;16.50;;;;;;;;5056595;28;45283;-68
2022/09/16 07:28:51;;;;;;;;;27.25;22.75;;;;;;;;5040533;28;45370;-68
2022/09/16 07:31:17;;;;;;;;;28.50;26.25;;;;;;;;5056234;28;46717;-68
2022/09/16 07:33:43;;;;;;;;;32.50;29.50;;;;;;;;5023374;28;45301;-68
2022/09/16 07:36:09;;;;;;;;;25.00;22.00;;;;;;;;5042354;28;45471;-68
2022/09/16 07:38:35;;;;;;;;;28.75;25.75;;;;;;;;5039888;28;45584;-67
2022/09/16 07:41:04;;;;;;;;;17.67;17.67;;;;;;;;5042367;28;46265;-67
2022/09/16 07:43:30;;;;;;;;;20.00;17.00;;;;;;;;5052780;28;45349;-68
2022/09/16 07:45:55;;;;;;;;;18.00;15.00;;;;;;;;5042440;28;45398;-68
2022/09/16 07:48:20;;;;;;;;;13.00;13.00;;;;;;;;5050638;28;45417;-68
2022/09/16 07:50:56;;;;;;;;;18.33;15.33;;;;;;;;5041752;28;45486;-67
2022/09/16 07:53:22;;;;;;;;;15.67;14.67;;;;;;;;5033156;28;45727;-67
2022/09/16 07:55:47;;;;;;;;;12.33;12.33;;;;;;;;5042407;28;45328;-69
2022/09/16 07:58:12;;;;;;;;;11.00;11.00;;;;;;;;5035894;28;45398;-67
2022/09/16 08:00:37;;;;;;;;;13.00;12.00;;;;;;;;5042379;28;46281;-68
2022/09/16 08:03:03;;;;;;;;;17.67;16.00;;;;;;;;5035740;28;45217;-67
2022/09/16 08:05:28;;;;;;;;;19.00;16.00;;;;;;;;5043122;28;45328;-67
2022/09/16 08:07:53;;;;;;;;;14.67;14.67;;;;;;;;5038668;28;45497;-66
2022/09/16 08:10:18;;;;;;;;;12.33;12.33;;;;;;;;5017922;28;47457;-68
2022/09/16 08:12:47;;;;;;;;;14.67;11.67;;;;;;;;5040493;28;45457;-67
2022/09/16 08:15:13;;;;;;;;;15.67;12.00;;;;;;;;5041377;28;45367;-68
2022/09/16 08:17:38;;;;;;;;;16.67;15.33;;;;;;;;5040028;28;45454;-68
2022/09/16 08:20:05;;;;;;;;;15.67;14.33;;;;;;;;5040893;28;46602;-68
2022/09/16 08:22:31;;;;;;;;;12.67;12.33;;;;;;;;5037764;28;45446;-69
2022/09/16 08:24:56;;;;;;;;;11.33;10.00;;;;;;;;5018725;28;45504;-68
2022/09/16 08:27:21;;;;;;;;;16.67;12.67;;;;;;;;5036550;28;45407;-68
2022/09/16 08:29:46;;;;;;;;;18.33;16.33;;;;;;;;5042086;28;45549;-68
2022/09/16 08:32:12;;;;;;;;;22.00;18.00;;;;;;;;5040411;28;45465;-68
2022/09/16 08:34:38;;;;;;;;;13.00;13.00;;;;;;;;5018299;28;45492;-68
2022/09/16 08:37:03;;;;;;;;;18.00;17.00;;;;;;;;5038339;28;45280;-68
2022/09/16 08:39:28;;;;;;;;;12.33;11.33;;;;;;;;5041601;28;46911;-68
2022/09/16 08:42:20;;;;;;;;;11.00;11.00;;;;;;;;5038281;28;45161;-68
2022/09/16 08:44:45;;;;;;;;;16.33;15.67;;;;;;;;5018383;28;45454;-68
2022/09/16 08:47:30;;;;;;;;;15.00;14.00;;;;;;;;5037960;28;45576;-68
2022/09/16 08:49:57;;;;;;;;;13.00;11.33;;;;;;;;5038078;28;45407;-68
2022/09/16 08:52:22;;;;;;;;;13.67;11.33;;;;;;;;5037685;28;45752;-68
2022/09/16 08:54:53;;;;;;;;;12.67;11.00;;;;;;;;5022077;28;45527;-67
2022/09/16 08:57:23;;;;;;;;;16.33;15.00;;;;;;;;5034917;28;45529;-69
2022/09/16 08:59:51;;;;;;;;;8.00;7.00;;;;;;;;5042056;28;46380;-68
2022/09/16 09:02:27;;;;;;;;;9.00;7.33;;;;;;;;5035780;28;45358;-68
2022/09/16 09:04:52;;;;;;;;;6.00;6.00;;;;;;;;5042038;28;45463;-68
2022/09/16 09:07:50;;;;;;;;;9.00;8.00;;;;;;;;5038892;28;45378;-68
2022/09/16 09:10:15;;;;;;;;;8.67;5.33;;;;;;;;4997209;28;45648;-68
2022/09/16 09:13:13;;;;;;;;;4.00;4.00;;;;;;;;5039589;28;45437;-68
2022/09/16 09:15:53;;;;;;;;;9.33;6.33;;;;;;;;4994421;28;45285;-68
2022/09/16 09:18:21;;;;;;;;;5.00;5.00;;;;;;;;5039640;28;45448;-67
2022/09/16 09:20:49;;;;;;;;;8.00;5.67;;;;;;;;5040055;28;45602;-68
2022/09/16 09:23:14;;;;;;;;;7.00;5.00;;;;;;;;5037719;28;45418;-68
2022/09/16 09:26:03;;;;;;;;;6.33;5.67;;;;;;;;5021170;28;45237;-67
2022/09/16 09:28:38;;;;;;;;;6.33;5.67;;;;;;;;5037940;28;45391;-68
2022/09/16 09:31:09;;;;;;;;;6.00;5.67;;;;;;;;5040732;28;45392;-68
2022/09/16 09:33:49;;;;;;;;;3.67;2.00;;;;;;;;5037827;28;45142;-68
2022/09/16 09:36:20;;;;;;;;;5.33;5.33;;;;;;;;5040673;28;45465;-69
2022/09/16 09:39:12;;;;;;;;;4.00;4.00;;;;;;;;5040040;28;45758;-69
2022/09/16 09:42:00;;;;;;;;;3.00;2.00;;;;;;;;5011576;28;47289;-68
2022/09/16 09:44:34;;;;;;;;;8.00;6.00;;;;;;;;5047649;28;46005;-69
2022/09/16 09:47:02;;;;;;;;;8.00;5.00;;;;;;;;5038602;28;45427;-68
2022/09/16 09:49:30;;;;;;;;;4.67;4.33;;;;;;;;5021665;28;45585;-69
2022/09/16 09:51:55;;;;;;;;;6.00;4.00;;;;;;;;5037614;28;45993;-68
2022/09/16 09:54:23;;;;;;;;;4.00;2.00;;;;;;;;5019873;28;45515;-69
2022/09/16 09:56:49;;;;;;;;;2.00;2.00;;;;;;;;5038456;28;45608;-68
2022/09/16 09:59:14;;;;;;;;;2.00;2.00;;;;;;;;5037740;28;45288;-68
2022/09/16 10:01:39;;;;;;;;;5.00;4.00;;;;;;;;5020929;28;48043;-68
2022/09/16 10:04:14;;;;;;;;;4.33;3.33;;;;;;;;5036775;28;45394;-68
2022/09/16 10:06:40;;;;;;;;;1.00;1.00;;;;;;;;5019286;28;45245;-68
2022/09/16 10:09:11;;;;;;;;;2.00;2.00;;;;;;;;5043063;28;45174;-68
2022/09/16 10:11:44;;;;;;;;;5.00;3.00;;;;;;;;5018938;28;45479;-69
2022/09/16 10:14:20;;;;;;;;;3.67;3.00;;;;;;;;5039564;28;45327;-67
2022/09/16 10:16:49;;;;;;;;;4.67;3.00;;;;;;;;5021254;28;45553;-68
2022/09/16 10:19:22;;;;;;;;;2.67;2.67;;;;;;;;5043705;28;45652;-68
2022/09/16 10:21:55;;;;;;;;;1.33;1.33;;;;;;;;5022594;28;47336;-69
2022/09/16 10:24:26;;;;;;;;;1.33;1.33;;;;;;;;5022398;28;45495;-68
2022/09/16 10:26:51;;;;;;;;;4.00;3.00;;;;;;;;5041755;28;45518;-68
2022/09/16 10:29:18;;;;;;;;;3.00;3.00;;;;;;;;5042144;28;45466;-69
2022/09/16 10:31:44;;;;;;;;;4.00;3.00;;;;;;;;5042200;28;46302;-69
2022/09/16 10:34:18;;;;;;;;;2.00;2.00;;;;;;;;5043546;28;45298;-68
2022/09/16 10:36:44;;;;;;;;;4.00;2.00;;;;;;;;5042512;28;45390;-68
2022/09/16 10:39:21;;;;;;;;;2.00;2.00;;;;;;;;5044862;28;45240;-69
2022/09/16 10:41:46;;;;;;;;;3.00;3.00;;;;;;;;5042313;28;46167;-69
2022/09/16 10:44:17;;;;;;;;;2.00;2.00;;;;;;;;5040163;28;45426;-69
2022/09/16 10:46:50;;;;;;;;;3.67;3.67;;;;;;;;5042709;28;45425;-68
2022/09/16 10:49:17;;;;;;;;;1.00;1.00;;;;;;;;5040285;28;45223;-67
2022/09/16 10:51:43;;;;;;;;;3.33;3.33;;;;;;;;5042001;28;45569;-68
2022/09/16 10:54:21;;;;;;;;;4.00;2.00;;;;;;;;5039489;28;45512;-68
2022/09/16 10:56:48;;;;;;;;;2.00;2.00;;;;;;;;5040941;28;45416;-67
2022/09/16 10:59:14;;;;;;;;;3.33;3.33;;;;;;;;5040349;28;45272;-69
2022/09/16 11:01:43;;;;;;;;;1.67;1.67;;;;;;;;5023841;28;48425;-67
2022/09/16 11:04:27;;;;;;;;;2.00;2.00;;;;;;;;5021435;28;45379;-67
2022/09/16 11:07:01;;;;;;;;;1.67;1.67;;;;;;;;5030472;28;45457;-68
2022/09/16 11:09:29;;;;;;;;;2.33;2.00;;;;;;;;5043087;28;45462;-69
2022/09/16 11:12:02;;;;;;;;;2.00;2.00;;;;;;;;5041665;28;45601;-68
2022/09/16 11:14:27;;;;;;;;;2.00;2.00;;;;;;;;5043443;28;45295;-67
2022/09/16 11:16:58;;;;;;;;;2.00;2.00;;;;;;;;5041504;28;45680;-68
2022/09/16 11:19:39;;;;;;;;;2.67;2.67;;;;;;;;5042257;28;45431;-68
2022/09/16 11:22:04;;;;;;;;;1.00;1.00;;;;;;;;5039713;28;46115;-68
2022/09/16 11:24:48;;;;;;;;;3.33;2.00;;;;;;;;5041375;28;45486;-68
2022/09/16 11:27:20;;;;;;;;;1.00;1.00;;;;;;;;5039795;28;45347;-68
2022/09/16 11:29:58;;;;;;;;;3.67;3.67;;;;;;;;5040576;28;45359;-69
2022/09/16 11:32:34;;;;;;;;;2.67;2.33;;;;;;;;5016084;28;46484;-69
2022/09/16 11:35:09;;;;;;;;;1.67;1.00;;;;;;;;5043379;28;45462;-68
2022/09/16 11:37:34;;;;;;;;;2.00;2.00;;;;;;;;5041397;28;45538;-68
2022/09/16 11:40:06;;;;;;;;;2.00;2.00;;;;;;;;5023578;28;45591;-68
2022/09/16 11:42:38;;;;;;;;;2.33;2.33;;;;;;;;5036618;28;45426;-68
2022/09/16 11:45:35;;;;;;;;;2.00;2.00;;;;;;;;5043172;28;45229;-68
2022/09/16 11:48:30;;;;;;;;;2.00;2.00;;;;;;;;4990419;28;45224;-68
2022/09/16 11:50:55;;;;;;;;;3.33;3.33;;;;;;;;5029368;28;45320;-67
2022/09/16 11:53:33;;;;;;;;;0.67;0.67;;;;;;;;5035968;28;48152;-68
2022/09/16 11:56:27;;;;;;;;;3.00;3.00;;;;;;;;5037378;28;45429;-68
2022/09/16 11:58:56;;;;;;;;;2.00;2.00;;;;;;;;5020652;28;45215;-68
2022/09/16 12:01:24;;;;;;;;;2.00;1.00;;;;;;;;5042723;28;45335;-68
2022/09/16 12:03:54;;;;;;;;;3.00;3.00;;;;;;;;5037515;28;45401;-68
2022/09/16 12:06:22;;;;;;;;;5.00;2.00;;;;;;;;5042250;28;45362;-68
2022/09/16 12:08:47;;;;;;;;;6.33;4.00;;;;;;;;5040017;28;45407;-68
2022/09/16 12:11:25;;;;;;;;;1.00;1.00;;;;;;;;5043506;28;45410;-69
2022/09/16 12:13:54;;;;;;;;;1.00;1.00;;;;;;;;5040932;28;45535;-68
2022/09/16 12:16:30;;;;;;;;;3.00;2.00;;;;;;;;5041999;28;45398;-69
2022/09/16 12:18:57;;;;;;;;;3.00;3.00;;;;;;;;5040298;28;45347;-68
2022/09/16 12:21:25;;;;;;;;;4.00;4.00;;;;;;;;5042524;28;45318;-68
2022/09/16 12:23:56;;;;;;;;;1.00;1.00;;;;;;;;5020464;28;47401;-67
2022/09/16 12:26:27;;;;;;;;;5.00;2.00;;;;;;;;5041765;28;45376;-67
2022/09/16 12:29:04;;;;;;;;;3.00;2.67;;;;;;;;5040965;28;45499;-68
2022/09/16 12:31:32;;;;;;;;;2.00;2.00;;;;;;;;5040371;28;45469;-67
2022/09/16 12:33:59;;;;;;;;;3.00;3.00;;;;;;;;5040090;28;45571;-68
2022/09/16 12:36:28;;;;;;;;;4.33;4.33;;;;;;;;5041795;28;45236;-67
2022/09/16 12:38:53;;;;;;;;;7.67;4.67;;;;;;;;5041991;28;45348;-68
2022/09/16 12:41:37;;;;;;;;;3.67;3.67;;;;;;;;5024001;28;45621;-68
2022/09/16 12:44:22;;;;;;;;;4.67;3.67;;;;;;;;5036386;28;46193;-69
2022/09/16 12:46:51;;;;;;;;;3.33;2.00;;;;;;;;5000732;28;45361;-68
2022/09/16 12:49:19;;;;;;;;;7.33;5.00;;;;;;;;5038307;28;45541;-68
2022/09/16 12:51:59;;;;;;;;;4.00;4.00;;;;;;;;5040926;28;45400;-68
2022/09/16 12:54:40;;;;;;;;;3.00;2.00;;;;;;;;5038714;28;45661;-68
2022/09/16 12:57:08;;;;;;;;;6.33;3.67;;;;;;;;5029608;28;45695;-68
2022/09/16 12:59:50;;;;;;;;;3.67;3.67;;;;;;;;5040397;28;45492;-68
2022/09/16 13:02:17;;;;;;;;;5.33;4.00;;;;;;;;5037166;28;45289;-70
2022/09/16 13:04:44;;;;;;;;;6.67;6.00;;;;;;;;5041591;28;45413;-69
2022/09/16 13:07:27;;;;;;;;;9.00;8.00;;;;;;;;5039941;28;45488;-68
2022/09/16 13:10:00;;;;;;;;;3.67;3.67;;;;;;;;5041977;28;45210;-68
2022/09/16 13:12:26;;;;;;;;;5.33;5.33;;;;;;;;5039756;28;45422;-69
2022/09/16 13:14:53;;;;;;;;;3.00;3.00;;;;;;;;5041759;28;46316;-68
2022/09/16 13:17:27;;;;;;;;;4.00;4.00;;;;;;;;5039499;28;45540;-68
2022/09/16 13:19:53;;;;;;;;;4.00;4.00;;;;;;;;5033331;28;45243;-68
2022/09/16 13:22:19;;;;;;;;;3.67;3.00;;;;;;;;5039502;28;45547;-68
2022/09/16 13:24:50;;;;;;;;;4.67;3.00;;;;;;;;5040182;28;45422;-68
2022/09/16 13:27:23;;;;;;;;;2.00;2.00;;;;;;;;5038667;28;45328;-68
2022/09/16 13:29:48;;;;;;;;;4.33;3.67;;;;;;;;5035868;28;45498;-68
2022/09/16 13:32:26;;;;;;;;;4.00;4.00;;;;;;;;5040058;28;45340;-68
2022/09/16 13:35:11;;;;;;;;;3.67;3.67;;;;;;;;5041925;28;45488;-68
2022/09/16 13:37:36;;;;;;;;;6.00;4.00;;;;;;;;5012427;28;45428;-68
2022/09/16 13:40:15;;;;;;;;;6.00;4.00;;;;;;;;5041663;28;45401;-68
2022/09/16 13:42:40;;;;;;;;;1.67;1.67;;;;;;;;5037693;28;45549;-68
2022/09/16 13:45:25;;;;;;;;;2.00;2.00;;;;;;;;5045058;28;45589;-68
2022/09/16 13:47:51;;;;;;;;;3.67;3.33;;;;;;;;5039114;28;45649;-68
2022/09/16 13:50:24;;;;;;;;;2.00;2.00;;;;;;;;5044379;28;45352;-67
2022/09/16 13:52:51;;;;;;;;;4.00;2.67;;;;;;;;5040007;28;45453;-68
2022/09/16 13:55:19;;;;;;;;;3.67;3.67;;;;;;;;5044585;28;45311;-69
2022/09/16 13:58:04;;;;;;;;;7.00;5.67;;;;;;;;5036858;28;45334;-69
2022/09/16 14:00:44;;;;;;;;;7.00;5.67;;;;;;;;5020881;28;45303;-69
2022/09/16 14:03:22;;;;;;;;;2.00;2.00;;;;;;;;5037153;28;45460;-67
2022/09/16 14:05:58;;;;;;;;;2.00;2.00;;;;;;;;5044829;28;45446;-67
2022/09/16 14:08:24;;;;;;;;;4.67;3.67;;;;;;;;5039638;28;45451;-68
2022/09/16 14:11:07;;;;;;;;;2.00;2.00;;;;;;;;5044585;28;45150;-68
2022/09/16 14:13:39;;;;;;;;;4.67;3.00;;;;;;;;5023077;28;45367;-68
2022/09/16 14:16:10;;;;;;;;;2.00;2.00;;;;;;;;5044307;28;46033;-68
2022/09/16 14:18:40;;;;;;;;;7.67;7.67;;;;;;;;5036337;28;45387;-69
2022/09/16 14:21:16;;;;;;;;;4.00;4.00;;;;;;;;5043680;28;45509;-68
2022/09/16 14:23:41;;;;;;;;;3.33;2.67;;;;;;;;5040573;28;45454;-68
2022/09/16 14:26:17;;;;;;;;;3.00;1.00;;;;;;;;5043698;28;45467;-67
2022/09/16 14:28:43;;;;;;;;;3.33;3.33;;;;;;;;5052076;28;45345;-68
2022/09/16 14:31:11;;;;;;;;;5.00;3.00;;;;;;;;5043626;28;45454;-68
2022/09/16 14:33:40;;;;;;;;;8.33;6.00;;;;;;;;5037366;28;45577;-68
2022/09/16 14:36:08;;;;;;;;;5.00;3.33;;;;;;;;5043368;28;46186;-68
2022/09/16 14:38:38;;;;;;;;;2.00;2.00;;;;;;;;5035829;28;45295;-68
2022/09/16 14:41:08;;;;;;;;;2.00;2.00;;;;;;;;5043473;28;45333;-66
2022/09/16 14:43:36;;;;;;;;;4.00;4.00;;;;;;;;5038302;28;45527;-69
2022/09/16 14:46:01;;;;;;;;;5.33;5.33;;;;;;;;5043426;28;45342;-68